sensor_id;sensor_type;location;lat;lon;timestamp;temperature;humidity
29577;DHT22;16509;53.862;10.672;2024-02-21T00:00:52;8.70;99.90
29577;DHT22;16509;53.862;10.672;2024-02-21T00:03:18;8.70;99.90
29577;DHT22;16509;53.862;10.672;2024-02-21T00:05:44;8.70;99.90
29577;DHT22;16509;53.862;10.672;2024-02-21T00:08:10;8.70;99.90
29577;DHT22;16509;53.862;10.672;2024-02-21T00:10:36;8.70;99.90
29577;DHT22;16509;53.862;10.672;2024-02-21T00:13:01;8.80;99.90
29577;DHT22;16509;53.862;10.672;2024-02-21T00:15:27;8.80;99.90
29577;DHT22;16509;53.862;10.672;2024-02-21T00:17:52;8.70;99.90
29577;DHT22;16509;53.862;10.672;2024-02-21T00:20:18;8.70;99.90
29577;DHT22;16509;53.862;10.672;2024-02-21T00:22:44;8.80;99.90
29577;DHT22;16509;53.862;10.672;2024-02-21T00:25:10;8.70;99.90
29577;DHT22;16509;53.862;10.672;2024-02-21T00:27:36;8.70;99.90
29577;DHT22;16509;53.862;10.672;2024-02-21T00:30:02;8.70;99.90
29577;DHT22;16509;53.862;10.672;2024-02-21T00:32:28;8.70;99.90
29577;DHT22;16509;53.862;10.672;2024-02-21T00:34:53;8.80;99.90
29577;DHT22;16509;53.862;10.672;2024-02-21T00:37:19;8.80;99.90
29577;DHT22;16509;53.862;10.672;2024-02-21T00:39:44;8.80;99.90
29577;DHT22;16509;53.862;10.672;2024-02-21T00:42:10;8.80;99.90
29577;DHT22;16509;53.862;10.672;2024-02-21T00:44:35;8.80;99.90
29577;DHT22;16509;53.862;10.672;2024-02-21T00:47:01;8.90;99.90
29577;DHT22;16509;53.862;10.672;2024-02-21T00:49:26;8.90;99.90
29577;DHT22;16509;53.862;10.672;2024-02-21T00:51:52;8.90;99.90
29577;DHT22;16509;53.862;10.672;2024-02-21T00:54:17;8.90;99.90
29577;DHT22;16509;53.862;10.672;2024-02-21T00:56:43;8.90;99.90
29577;DHT22;16509;53.862;10.672;2024-02-21T00:59:08;8.90;99.90
29577;DHT22;16509;53.862;10.672;2024-02-21T01:01:34;8.90;99.90
29577;DHT22;16509;53.862;10.672;2024-02-21T01:03:59;9.00;99.90
29577;DHT22;16509;53.862;10.672;2024-02-21T01:06:25;9.00;99.90
29577;DHT22;16509;53.862;10.672;2024-02-21T01:08:51;9.00;99.90
29577;DHT22;16509;53.862;10.672;2024-02-21T01:11:16;9.10;99.90
29577;DHT22;16509;53.862;10.672;2024-02-21T01:13:42;9.00;99.90
29577;DHT22;16509;53.862;10.672;2024-02-21T01:16:08;9.00;99.90
29577;DHT22;16509;53.862;10.672;2024-02-21T01:18:34;9.00;99.90
29577;DHT22;16509;53.862;10.672;2024-02-21T01:20:59;9.00;99.90
29577;DHT22;16509;53.862;10.672;2024-02-21T01:23:25;9.10;99.90
29577;DHT22;16509;53.862;10.672;2024-02-21T01:25:51;9.00;99.90
29577;DHT22;16509;53.862;10.672;2024-02-21T01:28:17;9.00;99.90
29577;DHT22;16509;53.862;10.672;2024-02-21T01:30:43;9.00;99.90
29577;DHT22;16509;53.862;10.672;2024-02-21T01:33:09;8.90;99.90
29577;DHT22;16509;53.862;10.672;2024-02-21T01:35:35;8.90;99.90
29577;DHT22;16509;53.862;10.672;2024-02-21T01:38:01;8.90;99.90
29577;DHT22;16509;53.862;10.672;2024-02-21T01:40:26;8.80;99.90
29577;DHT22;16509;53.862;10.672;2024-02-21T01:42:55;8.80;99.90
29577;DHT22;16509;53.862;10.672;2024-02-21T01:45:20;8.80;99.90
29577;DHT22;16509;53.862;10.672;2024-02-21T01:47:46;8.80;99.90
29577;DHT22;16509;53.862;10.672;2024-02-21T01:50:14;8.70;99.90
29577;DHT22;16509;53.862;10.672;2024-02-21T01:52:40;8.70;99.90
29577;DHT22;16509;53.862;10.672;2024-02-21T01:55:07;8.70;99.90
29577;DHT22;16509;53.862;10.672;2024-02-21T01:57:34;8.60;99.90
29577;DHT22;16509;53.862;10.672;2024-02-21T02:00:00;8.60;99.90
29577;DHT22;16509;53.862;10.672;2024-02-21T02:02:26;8.60;99.90
29577;DHT22;16509;53.862;10.672;2024-02-21T02:04:52;8.70;99.90
29577;DHT22;16509;53.862;10.672;2024-02-21T02:07:18;8.60;99.90
29577;DHT22;16509;53.862;10.672;2024-02-21T02:09:44;8.60;99.90
29577;DHT22;16509;53.862;10.672;2024-02-21T02:12:09;8.60;99.90
29577;DHT22;16509;53.862;10.672;2024-02-21T02:14:35;8.60;99.90
29577;DHT22;16509;53.862;10.672;2024-02-21T02:17:00;8.60;99.90
29577;DHT22;16509;53.862;10.672;2024-02-21T02:19:26;8.60;99.90
29577;DHT22;16509;53.862;10.672;2024-02-21T02:21:55;8.60;99.90
29577;DHT22;16509;53.862;10.672;2024-02-21T02:24:24;8.60;99.90
29577;DHT22;16509;53.862;10.672;2024-02-21T02:26:49;8.60;99.90
29577;DHT22;16509;53.862;10.672;2024-02-21T02:29:15;8.60;99.90
29577;DHT22;16509;53.862;10.672;2024-02-21T02:31:42;8.60;99.90
29577;DHT22;16509;53.862;10.672;2024-02-21T02:34:07;8.50;99.90
29577;DHT22;16509;53.862;10.672;2024-02-21T02:36:33;8.50;99.90
29577;DHT22;16509;53.862;10.672;2024-02-21T02:38:59;8.60;99.90
29577;DHT22;16509;53.862;10.672;2024-02-21T02:41:25;8.60;99.90
29577;DHT22;16509;53.862;10.672;2024-02-21T02:43:51;8.60;99.90
29577;DHT22;16509;53.862;10.672;2024-02-21T02:46:16;8.50;99.90
29577;DHT22;16509;53.862;10.672;2024-02-21T02:48:42;8.60;99.90
29577;DHT22;16509;53.862;10.672;2024-02-21T02:51:07;8.60;99.90
29577;DHT22;16509;53.862;10.672;2024-02-21T02:53:33;8.60;99.90
29577;DHT22;16509;53.862;10.672;2024-02-21T02:55:58;8.60;99.90
29577;DHT22;16509;53.862;10.672;2024-02-21T02:58:24;8.60;99.90
29577;DHT22;16509;53.862;10.672;2024-02-21T03:00:49;8.60;99.90
29577;DHT22;16509;53.862;10.672;2024-02-21T03:03:15;8.60;99.90
29577;DHT22;16509;53.862;10.672;2024-02-21T03:05:40;8.70;99.90
29577;DHT22;16509;53.862;10.672;2024-02-21T03:08:06;8.60;99.90
29577;DHT22;16509;53.862;10.672;2024-02-21T03:10:32;8.70;99.90
29577;DHT22;16509;53.862;10.672;2024-02-21T03:12:58;8.70;99.90
29577;DHT22;16509;53.862;10.672;2024-02-21T03:15:24;8.70;99.90
29577;DHT22;16509;53.862;10.672;2024-02-21T03:17:49;8.70;99.90
29577;DHT22;16509;53.862;10.672;2024-02-21T03:20:15;8.70;99.90
29577;DHT22;16509;53.862;10.672;2024-02-21T03:22:41;8.70;99.90
29577;DHT22;16509;53.862;10.672;2024-02-21T03:25:08;8.70;99.90
29577;DHT22;16509;53.862;10.672;2024-02-21T03:27:34;8.70;99.90
29577;DHT22;16509;53.862;10.672;2024-02-21T03:29:59;8.70;99.90
29577;DHT22;16509;53.862;10.672;2024-02-21T03:32:25;8.70;99.90
29577;DHT22;16509;53.862;10.672;2024-02-21T03:34:50;8.70;99.90
29577;DHT22;16509;53.862;10.672;2024-02-21T03:37:16;8.70;99.90
29577;DHT22;16509;53.862;10.672;2024-02-21T03:39:41;8.80;99.90
29577;DHT22;16509;53.862;10.672;2024-02-21T03:42:07;8.80;99.90
29577;DHT22;16509;53.862;10.672;2024-02-21T03:44:33;8.80;99.90
29577;DHT22;16509;53.862;10.672;2024-02-21T03:46:59;8.90;99.90
29577;DHT22;16509;53.862;10.672;2024-02-21T03:49:25;8.90;99.90
29577;DHT22;16509;53.862;10.672;2024-02-21T03:51:51;8.90;99.90
29577;DHT22;16509;53.862;10.672;2024-02-21T03:54:16;9.00;99.90
29577;DHT22;16509;53.862;10.672;2024-02-21T03:56:42;9.00;99.90
29577;DHT22;16509;53.862;10.672;2024-02-21T03:59:07;9.00;99.90
29577;DHT22;16509;53.862;10.672;2024-02-21T04:01:34;8.90;99.90
29577;DHT22;16509;53.862;10.672;2024-02-21T04:04:00;9.00;99.90
29577;DHT22;16509;53.862;10.672;2024-02-21T04:06:25;8.90;99.90
29577;DHT22;16509;53.862;10.672;2024-02-21T04:08:51;8.90;99.90
29577;DHT22;16509;53.862;10.672;2024-02-21T04:11:16;8.90;99.90
29577;DHT22;16509;53.862;10.672;2024-02-21T04:13:44;8.90;99.90
29577;DHT22;16509;53.862;10.672;2024-02-21T04:16:10;8.90;99.90
29577;DHT22;16509;53.862;10.672;2024-02-21T04:18:35;9.00;99.90
29577;DHT22;16509;53.862;10.672;2024-02-21T04:21:01;9.00;99.90
29577;DHT22;16509;53.862;10.672;2024-02-21T04:23:26;9.00;99.90
29577;DHT22;16509;53.862;10.672;2024-02-21T04:25:52;9.10;99.90
29577;DHT22;16509;53.862;10.672;2024-02-21T04:28:18;9.10;99.90
29577;DHT22;16509;53.862;10.672;2024-02-21T04:30:43;9.10;99.90
29577;DHT22;16509;53.862;10.672;2024-02-21T04:33:09;9.10;99.90
29577;DHT22;16509;53.862;10.672;2024-02-21T04:35:36;9.10;99.90
29577;DHT22;16509;53.862;10.672;2024-02-21T04:38:02;9.00;99.90
29577;DHT22;16509;53.862;10.672;2024-02-21T04:40:27;9.00;99.90
29577;DHT22;16509;53.862;10.672;2024-02-21T04:42:53;9.00;99.90
29577;DHT22;16509;53.862;10.672;2024-02-21T04:45:19;9.10;99.90
29577;DHT22;16509;53.862;10.672;2024-02-21T04:47:45;9.00;99.90
29577;DHT22;16509;53.862;10.672;2024-02-21T04:50:10;9.10;99.90
29577;DHT22;16509;53.862;10.672;2024-02-21T04:52:36;8.90;99.90
29577;DHT22;16509;53.862;10.672;2024-02-21T04:55:02;8.90;99.90
29577;DHT22;16509;53.862;10.672;2024-02-21T04:57:27;8.90;99.90
29577;DHT22;16509;53.862;10.672;2024-02-21T04:59:53;8.90;99.90
29577;DHT22;16509;53.862;10.672;2024-02-21T05:02:18;8.90;99.90
29577;DHT22;16509;53.862;10.672;2024-02-21T05:04:45;8.90;99.90
29577;DHT22;16509;53.862;10.672;2024-02-21T05:07:11;8.90;99.90
29577;DHT22;16509;53.862;10.672;2024-02-21T05:09:37;8.90;99.90
29577;DHT22;16509;53.862;10.672;2024-02-21T05:12:03;8.90;99.90
29577;DHT22;16509;53.862;10.672;2024-02-21T05:14:28;8.90;99.90
29577;DHT22;16509;53.862;10.672;2024-02-21T05:16:54;8.80;99.90
29577;DHT22;16509;53.862;10.672;2024-02-21T05:19:20;10.00;99.90
29577;DHT22;16509;53.862;10.672;2024-02-21T05:21:45;8.90;99.90
29577;DHT22;16509;53.862;10.672;2024-02-21T05:24:11;8.90;99.90
29577;DHT22;16509;53.862;10.672;2024-02-21T05:26:37;8.80;99.90
29577;DHT22;16509;53.862;10.672;2024-02-21T05:29:03;8.80;99.90
29577;DHT22;16509;53.862;10.672;2024-02-21T05:34:15;8.80;99.90
29577;DHT22;16509;53.862;10.672;2024-02-21T05:36:41;8.80;99.90
29577;DHT22;16509;53.862;10.672;2024-02-21T05:39:06;8.80;99.90
29577;DHT22;16509;53.862;10.672;2024-02-21T05:41:32;8.80;99.90
29577;DHT22;16509;53.862;10.672;2024-02-21T05:43:57;8.70;99.90
29577;DHT22;16509;53.862;10.672;2024-02-21T05:46:23;8.80;99.90
29577;DHT22;16509;53.862;10.672;2024-02-21T05:48:48;8.80;99.90
29577;DHT22;16509;53.862;10.672;2024-02-21T05:51:14;8.80;99.90
29577;DHT22;16509;53.862;10.672;2024-02-21T05:53:40;8.70;99.90
29577;DHT22;16509;53.862;10.672;2024-02-21T05:56:13;8.80;99.90
29577;DHT22;16509;53.862;10.672;2024-02-21T05:58:39;8.70;99.90
29577;DHT22;16509;53.862;10.672;2024-02-21T06:01:05;8.70;99.90
29577;DHT22;16509;53.862;10.672;2024-02-21T06:03:32;8.80;99.90
29577;DHT22;16509;53.862;10.672;2024-02-21T06:05:59;8.60;99.90
29577;DHT22;16509;53.862;10.672;2024-02-21T06:08:24;8.60;99.90
29577;DHT22;16509;53.862;10.672;2024-02-21T06:10:50;8.50;99.90
29577;DHT22;16509;53.862;10.672;2024-02-21T06:13:23;8.50;99.90
29577;DHT22;16509;53.862;10.672;2024-02-21T06:15:49;8.50;99.90
29577;DHT22;16509;53.862;10.672;2024-02-21T06:18:18;8.50;99.90
29577;DHT22;16509;53.862;10.672;2024-02-21T06:20:44;8.40;99.90
29577;DHT22;16509;53.862;10.672;2024-02-21T06:23:15;8.50;99.90
29577;DHT22;16509;53.862;10.672;2024-02-21T06:25:41;8.40;99.90
29577;DHT22;16509;53.862;10.672;2024-02-21T06:28:07;8.40;99.90
29577;DHT22;16509;53.862;10.672;2024-02-21T06:30:33;8.30;99.90
29577;DHT22;16509;53.862;10.672;2024-02-21T06:32:58;8.30;99.90
29577;DHT22;16509;53.862;10.672;2024-02-21T06:35:25;8.30;99.90
29577;DHT22;16509;53.862;10.672;2024-02-21T06:37:51;8.20;99.90
29577;DHT22;16509;53.862;10.672;2024-02-21T06:40:23;8.20;99.90
29577;DHT22;16509;53.862;10.672;2024-02-21T06:42:50;8.20;99.90
29577;DHT22;16509;53.862;10.672;2024-02-21T06:45:16;8.20;99.90
29577;DHT22;16509;53.862;10.672;2024-02-21T06:47:41;8.20;99.90
29577;DHT22;16509;53.862;10.672;2024-02-21T06:50:07;8.20;99.90
29577;DHT22;16509;53.862;10.672;2024-02-21T06:52:34;8.20;99.90
29577;DHT22;16509;53.862;10.672;2024-02-21T06:54:59;8.20;99.90
29577;DHT22;16509;53.862;10.672;2024-02-21T06:57:25;8.30;99.90
29577;DHT22;16509;53.862;10.672;2024-02-21T06:59:50;8.30;99.90
29577;DHT22;16509;53.862;10.672;2024-02-21T07:02:16;8.20;99.90
29577;DHT22;16509;53.862;10.672;2024-02-21T07:04:42;8.20;99.90
29577;DHT22;16509;53.862;10.672;2024-02-21T07:07:07;8.30;99.90
29577;DHT22;16509;53.862;10.672;2024-02-21T07:09:33;8.30;99.90
29577;DHT22;16509;53.862;10.672;2024-02-21T07:11:59;8.30;99.90
29577;DHT22;16509;53.862;10.672;2024-02-21T07:14:24;8.30;99.90
29577;DHT22;16509;53.862;10.672;2024-02-21T07:16:51;8.30;99.90
29577;DHT22;16509;53.862;10.672;2024-02-21T07:19:16;8.30;99.90
29577;DHT22;16509;53.862;10.672;2024-02-21T07:21:42;8.30;99.90
29577;DHT22;16509;53.862;10.672;2024-02-21T07:24:08;8.40;99.90
29577;DHT22;16509;53.862;10.672;2024-02-21T07:26:34;8.40;99.90
29577;DHT22;16509;53.862;10.672;2024-02-21T07:28:59;8.40;99.90
29577;DHT22;16509;53.862;10.672;2024-02-21T07:31:25;8.30;99.90
29577;DHT22;16509;53.862;10.672;2024-02-21T07:33:50;8.30;99.90
29577;DHT22;16509;53.862;10.672;2024-02-21T07:36:27;8.40;99.90
29577;DHT22;16509;53.862;10.672;2024-02-21T07:38:53;8.50;99.90
29577;DHT22;16509;53.862;10.672;2024-02-21T07:41:19;8.50;99.90
29577;DHT22;16509;53.862;10.672;2024-02-21T07:43:44;8.50;99.90
29577;DHT22;16509;53.862;10.672;2024-02-21T07:46:10;8.50;99.90
29577;DHT22;16509;53.862;10.672;2024-02-21T07:48:35;8.50;99.90
29577;DHT22;16509;53.862;10.672;2024-02-21T07:51:01;8.50;99.90
29577;DHT22;16509;53.862;10.672;2024-02-21T07:53:27;8.50;99.90
29577;DHT22;16509;53.862;10.672;2024-02-21T07:55:52;8.50;99.90
29577;DHT22;16509;53.862;10.672;2024-02-21T07:58:18;8.50;99.90
29577;DHT22;16509;53.862;10.672;2024-02-21T08:00:43;8.60;99.90
29577;DHT22;16509;53.862;10.672;2024-02-21T08:03:09;8.60;99.90
29577;DHT22;16509;53.862;10.672;2024-02-21T08:05:35;8.70;99.90
29577;DHT22;16509;53.862;10.672;2024-02-21T08:08:00;8.70;99.90
29577;DHT22;16509;53.862;10.672;2024-02-21T08:10:26;8.80;99.90
29577;DHT22;16509;53.862;10.672;2024-02-21T08:12:51;8.80;99.90
29577;DHT22;16509;53.862;10.672;2024-02-21T08:15:17;8.80;99.90
29577;DHT22;16509;53.862;10.672;2024-02-21T08:17:42;8.90;99.90
29577;DHT22;16509;53.862;10.672;2024-02-21T08:20:08;8.90;99.90
29577;DHT22;16509;53.862;10.672;2024-02-21T08:22:37;9.00;99.90
29577;DHT22;16509;53.862;10.672;2024-02-21T08:25:03;8.90;99.90
29577;DHT22;16509;53.862;10.672;2024-02-21T08:27:31;9.00;99.90
29577;DHT22;16509;53.862;10.672;2024-02-21T08:29:56;9.00;99.90
29577;DHT22;16509;53.862;10.672;2024-02-21T08:32:22;9.00;99.90
29577;DHT22;16509;53.862;10.672;2024-02-21T08:34:47;8.90;99.90
29577;DHT22;16509;53.862;10.672;2024-02-21T08:37:13;8.90;99.90
29577;DHT22;16509;53.862;10.672;2024-02-21T08:39:38;8.90;99.90
29577;DHT22;16509;53.862;10.672;2024-02-21T08:42:04;8.90;99.90
29577;DHT22;16509;53.862;10.672;2024-02-21T08:44:30;8.80;99.90
29577;DHT22;16509;53.862;10.672;2024-02-21T08:46:56;8.80;99.90
29577;DHT22;16509;53.862;10.672;2024-02-21T08:49:21;8.80;99.90
29577;DHT22;16509;53.862;10.672;2024-02-21T08:51:47;8.90;99.90
29577;DHT22;16509;53.862;10.672;2024-02-21T08:54:12;8.80;99.90
29577;DHT22;16509;53.862;10.672;2024-02-21T08:56:38;8.90;99.90
29577;DHT22;16509;53.862;10.672;2024-02-21T08:59:04;9.00;99.90
29577;DHT22;16509;53.862;10.672;2024-02-21T09:01:29;9.10;99.90
29577;DHT22;16509;53.862;10.672;2024-02-21T09:03:55;9.20;99.90
29577;DHT22;16509;53.862;10.672;2024-02-21T09:06:22;9.30;99.90
29577;DHT22;16509;53.862;10.672;2024-02-21T09:08:48;9.40;99.90
29577;DHT22;16509;53.862;10.672;2024-02-21T09:11:13;9.40;99.90
29577;DHT22;16509;53.862;10.672;2024-02-21T09:13:39;9.50;99.90
29577;DHT22;16509;53.862;10.672;2024-02-21T09:16:04;9.50;99.90
29577;DHT22;16509;53.862;10.672;2024-02-21T09:18:31;9.50;99.90
29577;DHT22;16509;53.862;10.672;2024-02-21T09:20:56;9.40;99.90
29577;DHT22;16509;53.862;10.672;2024-02-21T09:23:24;9.40;99.90
29577;DHT22;16509;53.862;10.672;2024-02-21T09:25:50;9.40;99.90
29577;DHT22;16509;53.862;10.672;2024-02-21T09:28:15;9.30;99.90
29577;DHT22;16509;53.862;10.672;2024-02-21T09:30:41;9.30;99.90
29577;DHT22;16509;53.862;10.672;2024-02-21T09:33:06;9.30;99.90
29577;DHT22;16509;53.862;10.672;2024-02-21T09:35:32;9.40;99.90
29577;DHT22;16509;53.862;10.672;2024-02-21T09:37:59;9.40;99.90
29577;DHT22;16509;53.862;10.672;2024-02-21T09:40:25;9.40;99.90
29577;DHT22;16509;53.862;10.672;2024-02-21T09:43:00;9.60;99.90
29577;DHT22;16509;53.862;10.672;2024-02-21T09:45:28;9.60;99.90
29577;DHT22;16509;53.862;10.672;2024-02-21T09:48:19;9.70;99.90
29577;DHT22;16509;53.862;10.672;2024-02-21T09:50:50;9.90;99.90
29577;DHT22;16509;53.862;10.672;2024-02-21T09:53:16;10.00;99.90
29577;DHT22;16509;53.862;10.672;2024-02-21T09:55:43;10.00;99.90
29577;DHT22;16509;53.862;10.672;2024-02-21T09:58:09;10.00;99.90
29577;DHT22;16509;53.862;10.672;2024-02-21T10:00:38;10.10;99.90
29577;DHT22;16509;53.862;10.672;2024-02-21T10:03:04;9.90;99.90
29577;DHT22;16509;53.862;10.672;2024-02-21T10:05:35;9.90;99.90
29577;DHT22;16509;53.862;10.672;2024-02-21T10:08:01;10.00;99.90
29577;DHT22;16509;53.862;10.672;2024-02-21T10:10:27;9.90;99.90
29577;DHT22;16509;53.862;10.672;2024-02-21T10:12:53;10.00;99.90
29577;DHT22;16509;53.862;10.672;2024-02-21T10:15:22;10.00;99.90
29577;DHT22;16509;53.862;10.672;2024-02-21T10:17:48;9.90;99.90
29577;DHT22;16509;53.862;10.672;2024-02-21T10:20:14;9.90;99.90
29577;DHT22;16509;53.862;10.672;2024-02-21T10:22:40;10.00;99.90
29577;DHT22;16509;53.862;10.672;2024-02-21T10:25:10;10.10;99.90
29577;DHT22;16509;53.862;10.672;2024-02-21T10:27:36;10.30;99.90
29577;DHT22;16509;53.862;10.672;2024-02-21T10:30:03;10.50;99.90
29577;DHT22;16509;53.862;10.672;2024-02-21T10:32:29;10.60;99.90
29577;DHT22;16509;53.862;10.672;2024-02-21T10:35:03;10.60;99.90
29577;DHT22;16509;53.862;10.672;2024-02-21T10:37:34;10.60;99.90
29577;DHT22;16509;53.862;10.672;2024-02-21T10:40:00;10.70;99.90
29577;DHT22;16509;53.862;10.672;2024-02-21T10:42:29;10.70;99.90
29577;DHT22;16509;53.862;10.672;2024-02-21T10:45:00;10.70;99.90
29577;DHT22;16509;53.862;10.672;2024-02-21T10:47:26;10.70;99.90
29577;DHT22;16509;53.862;10.672;2024-02-21T10:50:01;10.60;99.90
29577;DHT22;16509;53.862;10.672;2024-02-21T10:55:03;10.70;99.90
29577;DHT22;16509;53.862;10.672;2024-02-21T10:57:29;10.70;99.90
29577;DHT22;16509;53.862;10.672;2024-02-21T10:59:58;10.70;99.90
29577;DHT22;16509;53.862;10.672;2024-02-21T11:02:24;10.50;99.90
29577;DHT22;16509;53.862;10.672;2024-02-21T11:04:52;10.40;99.90
29577;DHT22;16509;53.862;10.672;2024-02-21T11:07:19;10.50;99.90
29577;DHT22;16509;53.862;10.672;2024-02-21T11:09:52;10.50;99.90
29577;DHT22;16509;53.862;10.672;2024-02-21T11:12:21;10.50;99.90
29577;DHT22;16509;53.862;10.672;2024-02-21T11:14:47;10.50;99.90
29577;DHT22;16509;53.862;10.672;2024-02-21T11:17:20;10.60;99.90
29577;DHT22;16509;53.862;10.672;2024-02-21T11:19:51;10.60;99.90
29577;DHT22;16509;53.862;10.672;2024-02-21T11:22:18;10.50;99.90
29577;DHT22;16509;53.862;10.672;2024-02-21T11:24:44;10.40;99.90
29577;DHT22;16509;53.862;10.672;2024-02-21T11:27:19;10.30;99.90
29577;DHT22;16509;53.862;10.672;2024-02-21T11:29:57;10.30;99.90
29577;DHT22;16509;53.862;10.672;2024-02-21T11:32:25;10.30;99.90
29577;DHT22;16509;53.862;10.672;2024-02-21T11:35:01;10.20;99.90
29577;DHT22;16509;53.862;10.672;2024-02-21T11:37:28;10.20;99.90
29577;DHT22;16509;53.862;10.672;2024-02-21T11:39:55;10.10;99.90
29577;DHT22;16509;53.862;10.672;2024-02-21T11:42:21;10.00;99.90
29577;DHT22;16509;53.862;10.672;2024-02-21T11:44:46;10.00;99.90
29577;DHT22;16509;53.862;10.672;2024-02-21T11:47:14;10.00;99.90
29577;DHT22;16509;53.862;10.672;2024-02-21T11:49:46;10.00;99.90
29577;DHT22;16509;53.862;10.672;2024-02-21T11:52:14;10.00;99.90
29577;DHT22;16509;53.862;10.672;2024-02-21T11:54:45;10.00;99.90
29577;DHT22;16509;53.862;10.672;2024-02-21T11:57:11;9.80;99.90
29577;DHT22;16509;53.862;10.672;2024-02-21T11:59:39;9.70;99.90
29577;DHT22;16509;53.862;10.672;2024-02-21T12:02:05;9.80;99.90
29577;DHT22;16509;53.862;10.672;2024-02-21T12:04:30;9.80;99.90
29577;DHT22;16509;53.862;10.672;2024-02-21T12:06:58;9.90;99.90
29577;DHT22;16509;53.862;10.672;2024-02-21T12:09:24;9.90;99.90
29577;DHT22;16509;53.862;10.672;2024-02-21T12:12:04;9.80;99.90
29577;DHT22;16509;53.862;10.672;2024-02-21T12:14:31;9.80;99.90
29577;DHT22;16509;53.862;10.672;2024-02-21T12:16:57;9.80;99.90
29577;DHT22;16509;53.862;10.672;2024-02-21T12:19:23;9.90;99.90
29577;DHT22;16509;53.862;10.672;2024-02-21T12:21:49;9.90;99.90
29577;DHT22;16509;53.862;10.672;2024-02-21T12:24:24;9.90;99.90
29577;DHT22;16509;53.862;10.672;2024-02-21T12:26:51;9.90;99.90
29577;DHT22;16509;53.862;10.672;2024-02-21T12:29:17;10.00;99.90
29577;DHT22;16509;53.862;10.672;2024-02-21T12:31:43;10.00;99.90
29577;DHT22;16509;53.862;10.672;2024-02-21T12:34:09;10.00;99.90
29577;DHT22;16509;53.862;10.672;2024-02-21T12:36:44;10.00;99.90
29577;DHT22;16509;53.862;10.672;2024-02-21T12:39:12;10.00;99.90
29577;DHT22;16509;53.862;10.672;2024-02-21T12:41:38;10.10;99.90
29577;DHT22;16509;53.862;10.672;2024-02-21T12:44:07;10.00;99.90
29577;DHT22;16509;53.862;10.672;2024-02-21T12:46:36;10.00;99.90
29577;DHT22;16509;53.862;10.672;2024-02-21T12:49:02;10.00;99.90
29577;DHT22;16509;53.862;10.672;2024-02-21T12:51:28;9.80;99.90
29577;DHT22;16509;53.862;10.672;2024-02-21T12:53:55;9.80;99.90
29577;DHT22;16509;53.862;10.672;2024-02-21T12:56:20;9.80;99.90
29577;DHT22;16509;53.862;10.672;2024-02-21T12:58:46;9.70;99.90
29577;DHT22;16509;53.862;10.672;2024-02-21T13:01:11;9.80;99.90
29577;DHT22;16509;53.862;10.672;2024-02-21T13:03:37;9.70;99.90
29577;DHT22;16509;53.862;10.672;2024-02-21T13:06:04;9.80;99.90
29577;DHT22;16509;53.862;10.672;2024-02-21T13:08:29;9.80;99.90
29577;DHT22;16509;53.862;10.672;2024-02-21T13:10:55;9.70;99.90
29577;DHT22;16509;53.862;10.672;2024-02-21T13:13:20;9.60;99.90
29577;DHT22;16509;53.862;10.672;2024-02-21T13:15:46;9.70;99.90
29577;DHT22;16509;53.862;10.672;2024-02-21T13:18:11;9.60;99.90
29577;DHT22;16509;53.862;10.672;2024-02-21T13:20:38;9.50;99.90
29577;DHT22;16509;53.862;10.672;2024-02-21T13:23:03;9.50;99.90
29577;DHT22;16509;53.862;10.672;2024-02-21T13:25:29;9.50;99.90
29577;DHT22;16509;53.862;10.672;2024-02-21T13:27:55;9.40;99.90
29577;DHT22;16509;53.862;10.672;2024-02-21T13:30:22;9.30;99.90
29577;DHT22;16509;53.862;10.672;2024-02-21T13:32:47;9.40;99.90
29577;DHT22;16509;53.862;10.672;2024-02-21T13:35:13;9.40;99.90
29577;DHT22;16509;53.862;10.672;2024-02-21T13:37:40;9.40;99.90
29577;DHT22;16509;53.862;10.672;2024-02-21T13:40:06;9.40;99.90
29577;DHT22;16509;53.862;10.672;2024-02-21T13:42:32;9.40;99.90
29577;DHT22;16509;53.862;10.672;2024-02-21T13:44:58;9.40;99.90
29577;DHT22;16509;53.862;10.672;2024-02-21T13:47:23;9.40;99.90
29577;DHT22;16509;53.862;10.672;2024-02-21T13:49:49;9.40;99.90
29577;DHT22;16509;53.862;10.672;2024-02-21T13:52:15;9.50;99.90
29577;DHT22;16509;53.862;10.672;2024-02-21T13:54:40;9.50;99.90
29577;DHT22;16509;53.862;10.672;2024-02-21T13:57:07;9.60;99.90
29577;DHT22;16509;53.862;10.672;2024-02-21T13:59:33;9.60;99.90
29577;DHT22;16509;53.862;10.672;2024-02-21T14:01:59;9.60;99.90
29577;DHT22;16509;53.862;10.672;2024-02-21T14:04:25;9.50;99.90
29577;DHT22;16509;53.862;10.672;2024-02-21T14:06:51;9.50;99.90
29577;DHT22;16509;53.862;10.672;2024-02-21T14:09:18;9.50;99.90
29577;DHT22;16509;53.862;10.672;2024-02-21T14:11:44;9.40;99.90
29577;DHT22;16509;53.862;10.672;2024-02-21T14:14:10;9.40;99.90
29577;DHT22;16509;53.862;10.672;2024-02-21T14:16:36;9.30;99.90
29577;DHT22;16509;53.862;10.672;2024-02-21T14:19:02;9.30;99.90
29577;DHT22;16509;53.862;10.672;2024-02-21T14:21:27;9.30;99.90
29577;DHT22;16509;53.862;10.672;2024-02-21T14:23:54;9.30;99.90
29577;DHT22;16509;53.862;10.672;2024-02-21T14:26:19;9.30;99.90
29577;DHT22;16509;53.862;10.672;2024-02-21T14:28:45;9.30;99.90
29577;DHT22;16509;53.862;10.672;2024-02-21T14:31:11;9.30;99.90
29577;DHT22;16509;53.862;10.672;2024-02-21T14:33:37;9.30;99.90
29577;DHT22;16509;53.862;10.672;2024-02-21T14:36:03;9.20;99.90
29577;DHT22;16509;53.862;10.672;2024-02-21T14:38:28;9.20;99.90
29577;DHT22;16509;53.862;10.672;2024-02-21T14:40:54;9.20;99.90
29577;DHT22;16509;53.862;10.672;2024-02-21T14:43:20;9.30;99.90
29577;DHT22;16509;53.862;10.672;2024-02-21T14:45:49;9.30;99.90
29577;DHT22;16509;53.862;10.672;2024-02-21T14:48:15;9.30;99.90
29577;DHT22;16509;53.862;10.672;2024-02-21T14:50:40;9.30;99.90
29577;DHT22;16509;53.862;10.672;2024-02-21T14:53:07;9.30;99.90
29577;DHT22;16509;53.862;10.672;2024-02-21T14:55:36;9.40;99.90
29577;DHT22;16509;53.862;10.672;2024-02-21T14:58:05;9.40;99.90
29577;DHT22;16509;53.862;10.672;2024-02-21T15:00:32;9.40;99.90
29577;DHT22;16509;53.862;10.672;2024-02-21T15:02:58;9.40;99.90
29577;DHT22;16509;53.862;10.672;2024-02-21T15:05:24;9.30;99.90
29577;DHT22;16509;53.862;10.672;2024-02-21T15:07:49;9.40;99.90
29577;DHT22;16509;53.862;10.672;2024-02-21T15:10:15;9.30;99.90
29577;DHT22;16509;53.862;10.672;2024-02-21T15:12:45;9.30;99.90
29577;DHT22;16509;53.862;10.672;2024-02-21T15:15:10;9.40;99.90
29577;DHT22;16509;53.862;10.672;2024-02-21T15:17:36;9.30;99.90
29577;DHT22;16509;53.862;10.672;2024-02-21T15:20:01;9.30;99.90
29577;DHT22;16509;53.862;10.672;2024-02-21T15:22:27;9.30;99.90
29577;DHT22;16509;53.862;10.672;2024-02-21T15:24:53;9.20;99.90
29577;DHT22;16509;53.862;10.672;2024-02-21T15:27:18;9.30;99.90